OCN2056 LEPA-EDDF
Flight info
| Callsign | OCN2056 |
|---|---|
| Flight time | 1h 47m |
| Altitude | 36000 |
| Route | MEROS DCT LAPIT/N0456F320 DCT CHELY DCT LUMAS DCT MAXIR DCT LUSOL DCT BODRU DCT OKTET DCT IRMAR DCT KINES DCT VANAS DCT MOBLO DCT UBIMA DCT SOSAL DCT KORED DCT BERSU N871 DITON/N0452F350 DCT LADOL/N0451F360 T163 EMPAX EMPAX5B |
| Aircraft | A320/M-SDE3FGHIRWY/LB1 |
Departure
| Time | 2026-05-05 17:50 |
|---|---|
| Airport | Palma de Mallorca Airport (LEPA) |
Arrival
| Time | 2026-05-05 19:38 |
|---|---|
| Airport | Frankfurt Main Airport (EDDF) |
| Time | Latitude | Longitude | Altitude | Speed | Heading |
|---|---|---|---|---|---|
| 2026-05-05 17:10 | 39.55464 | 2.73339 | 30 ft | 0 kts | 175° |
| 2026-05-05 17:41 | 39.55454 | 2.73340 | 30 ft | 6 kts | 175° |
| 2026-05-05 17:41 | 39.55418 | 2.73383 | 30 ft | 7 kts | 95° |
| 2026-05-05 17:41 | 39.55445 | 2.73454 | 30 ft | 14 kts | 60° |
| 2026-05-05 17:42 | 39.55486 | 2.73537 | 30 ft | 8 kts | 47° |
| 2026-05-05 17:42 | 39.55557 | 2.73549 | 30 ft | 11 kts | 339° |
| 2026-05-05 17:42 | 39.55630 | 2.73499 | 30 ft | 12 kts | 352° |
| 2026-05-05 17:42 | 39.55684 | 2.73557 | 30 ft | 11 kts | 58° |
| 2026-05-05 17:43 | 39.55740 | 2.73675 | 30 ft | 15 kts | 59° |
| 2026-05-05 17:43 | 39.55787 | 2.73777 | 30 ft | 13 kts | 59° |
| 2026-05-05 17:43 | 39.55838 | 2.73887 | 30 ft | 15 kts | 59° |
| 2026-05-05 17:43 | 39.55889 | 2.73998 | 30 ft | 14 kts | 59° |
| 2026-05-05 17:44 | 39.55936 | 2.74099 | 30 ft | 13 kts | 59° |
| 2026-05-05 17:44 | 39.55980 | 2.74189 | 30 ft | 11 kts | 57° |
| 2026-05-05 17:44 | 39.56020 | 2.74269 | 30 ft | 10 kts | 57° |
| 2026-05-05 17:44 | 39.56055 | 2.74342 | 30 ft | 9 kts | 59° |
| 2026-05-05 17:45 | 39.56086 | 2.74408 | 30 ft | 8 kts | 59° |
| 2026-05-05 17:45 | 39.56118 | 2.74458 | 30 ft | 7 kts | 29° |
| 2026-05-05 17:45 | 39.56140 | 2.74460 | 30 ft | 0 kts | 350° |
| 2026-05-05 17:47 | 39.56141 | 2.74460 | 30 ft | 1 kts | 350° |
| 2026-05-05 17:47 | 39.56171 | 2.74447 | 30 ft | 8 kts | 335° |
| 2026-05-05 17:47 | 39.56221 | 2.74409 | 30 ft | 8 kts | 327° |
| 2026-05-05 17:48 | 39.56260 | 2.74370 | 30 ft | 6 kts | 312° |
| 2026-05-05 17:48 | 39.56258 | 2.74325 | 30 ft | 4 kts | 240° |
| 2026-05-05 17:48 | 39.56256 | 2.74320 | 30 ft | 0 kts | 240° |
| 2026-05-05 17:49 | 39.56254 | 2.74316 | 30 ft | 4 kts | 240° |
| 2026-05-05 17:49 | 39.56132 | 2.74059 | 30 ft | 70 kts | 238° |
| 2026-05-05 17:50 | 39.55763 | 2.73282 | 30 ft | 129 kts | 238° |
| 2026-05-05 17:50 | 39.55225 | 2.72147 | 279 ft | 158 kts | 239° |
| 2026-05-05 17:50 | 39.54636 | 2.70894 | 853 ft | 166 kts | 240° |
| 2026-05-05 17:50 | 39.54024 | 2.69580 | 1544 ft | 174 kts | 240° |
| 2026-05-05 17:51 | 39.53370 | 2.68185 | 2024 ft | 188 kts | 240° |
| 2026-05-05 17:51 | 39.52664 | 2.66690 | 2505 ft | 203 kts | 240° |
| 2026-05-05 17:51 | 39.51909 | 2.65096 | 3136 ft | 210 kts | 240° |
| 2026-05-05 17:51 | 39.51141 | 2.63486 | 4032 ft | 210 kts | 240° |
| 2026-05-05 17:52 | 39.50370 | 2.61874 | 4929 ft | 211 kts | 240° |
| 2026-05-05 17:52 | 39.49317 | 2.60441 | 5434 ft | 237 kts | 215° |
| 2026-05-05 17:52 | 39.47800 | 2.59401 | 5905 ft | 259 kts | 210° |
| 2026-05-05 17:52 | 39.46157 | 2.58342 | 6703 ft | 266 kts | 210° |
| 2026-05-05 17:53 | 39.44486 | 2.57277 | 7612 ft | 269 kts | 209° |
| 2026-05-05 17:53 | 39.42662 | 2.56658 | 8510 ft | 280 kts | 182° |
| 2026-05-05 17:53 | 39.40764 | 2.57405 | 9428 ft | 295 kts | 152° |
| 2026-05-05 17:53 | 39.39195 | 2.59161 | 10306 ft | 302 kts | 139° |
| 2026-05-05 17:54 | 39.38179 | 2.60403 | 10736 ft | 309 kts | 143° |
| 2026-05-05 17:54 | 39.36583 | 2.62431 | 11007 ft | 334 kts | 138° |
| 2026-05-05 17:54 | 39.34937 | 2.64707 | 11233 ft | 357 kts | 139° |
| 2026-05-05 17:54 | 39.32523 | 2.67732 | 11942 ft | 369 kts | 142° |
| 2026-05-05 17:55 | 39.30622 | 2.69978 | 12662 ft | 373 kts | 143° |
| 2026-05-05 17:55 | 39.29321 | 2.71507 | 13167 ft | 375 kts | 143° |
| 2026-05-05 17:55 | 39.27585 | 2.74083 | 13861 ft | 390 kts | 124° |
| 2026-05-05 17:55 | 39.26711 | 2.77388 | 14500 ft | 404 kts | 102° |
| 2026-05-05 17:56 | 39.26443 | 2.81029 | 15158 ft | 410 kts | 95° |
| 2026-05-05 17:56 | 39.26445 | 2.84725 | 15818 ft | 414 kts | 88° |
| 2026-05-05 17:56 | 39.27014 | 2.88385 | 16508 ft | 419 kts | 73° |
| 2026-05-05 17:56 | 39.28141 | 2.91860 | 17203 ft | 420 kts | 59° |
| 2026-05-05 17:57 | 39.29913 | 2.94840 | 17924 ft | 418 kts | 41° |
| 2026-05-05 17:57 | 39.32051 | 2.97385 | 18589 ft | 420 kts | 39° |
| 2026-05-05 17:57 | 39.34270 | 2.99959 | 18730 ft | 436 kts | 39° |
| 2026-05-05 17:57 | 39.36565 | 3.02592 | 19035 ft | 445 kts | 39° |
| 2026-05-05 17:58 | 39.38891 | 3.05262 | 19511 ft | 449 kts | 39° |
| 2026-05-05 17:58 | 39.41236 | 3.07961 | 19815 ft | 451 kts | 39° |
| 2026-05-05 17:58 | 39.43576 | 3.10660 | 19900 ft | 451 kts | 39° |
| 2026-05-05 17:58 | 39.45894 | 3.13346 | 20287 ft | 454 kts | 39° |
| 2026-05-05 17:59 | 39.48252 | 3.16084 | 20801 ft | 457 kts | 39° |
| 2026-05-05 17:59 | 39.50636 | 3.18848 | 21283 ft | 460 kts | 38° |
| 2026-05-05 17:59 | 39.53249 | 3.21223 | 21724 ft | 458 kts | 24° |
| 2026-05-05 17:59 | 39.56115 | 3.23063 | 22157 ft | 460 kts | 21° |
| 2026-05-05 18:00 | 39.59011 | 3.24881 | 22628 ft | 464 kts | 21° |
| 2026-05-05 18:00 | 39.61929 | 3.26696 | 23078 ft | 467 kts | 21° |
| 2026-05-05 18:00 | 39.64868 | 3.28519 | 23511 ft | 470 kts | 21° |
| 2026-05-05 18:00 | 39.67831 | 3.30361 | 23872 ft | 473 kts | 21° |
| 2026-05-05 18:01 | 39.70809 | 3.32224 | 24225 ft | 476 kts | 21° |
| 2026-05-05 18:01 | 39.73803 | 3.34105 | 24587 ft | 479 kts | 21° |
| 2026-05-05 18:01 | 39.76811 | 3.36001 | 24948 ft | 482 kts | 21° |
| 2026-05-05 18:01 | 39.79801 | 3.37887 | 25269 ft | 486 kts | 21° |
| 2026-05-05 18:02 | 39.82851 | 3.39813 | 25592 ft | 489 kts | 21° |
| 2026-05-05 18:02 | 39.85925 | 3.41751 | 25926 ft | 492 kts | 21° |
| 2026-05-05 18:02 | 39.89018 | 3.43699 | 26257 ft | 495 kts | 21° |
| 2026-05-05 18:02 | 39.92130 | 3.45665 | 26574 ft | 498 kts | 21° |
| 2026-05-05 18:03 | 39.95253 | 3.47642 | 26890 ft | 501 kts | 21° |
| 2026-05-05 18:03 | 39.98396 | 3.49633 | 27225 ft | 504 kts | 21° |
| 2026-05-05 18:03 | 40.01563 | 3.51637 | 27492 ft | 507 kts | 21° |
| 2026-05-05 18:03 | 40.04746 | 3.53652 | 27774 ft | 510 kts | 21° |
| 2026-05-05 18:04 | 40.07958 | 3.55694 | 28058 ft | 513 kts | 21° |
| 2026-05-05 18:04 | 40.11133 | 3.57714 | 28341 ft | 516 kts | 21° |
| 2026-05-05 18:04 | 40.14370 | 3.59773 | 28622 ft | 518 kts | 21° |
| 2026-05-05 18:04 | 40.17622 | 3.61842 | 28898 ft | 521 kts | 21° |
| 2026-05-05 18:05 | 40.20880 | 3.63919 | 29269 ft | 522 kts | 21° |
| 2026-05-05 18:05 | 40.24156 | 3.66012 | 29545 ft | 525 kts | 21° |
| 2026-05-05 18:05 | 40.27439 | 3.68114 | 29887 ft | 526 kts | 21° |
| 2026-05-05 18:05 | 40.30730 | 3.70222 | 30220 ft | 526 kts | 21° |
| 2026-05-05 18:06 | 40.34026 | 3.72331 | 30562 ft | 526 kts | 21° |
| 2026-05-05 18:06 | 40.36202 | 3.73722 | 30789 ft | 526 kts | 21° |
| 2026-05-05 18:06 | 40.40560 | 3.76516 | 31255 ft | 525 kts | 21° |
| 2026-05-05 18:06 | 40.43844 | 3.78632 | 31573 ft | 527 kts | 21° |
| 2026-05-05 18:07 | 40.47141 | 3.80755 | 31822 ft | 528 kts | 21° |
| 2026-05-05 18:07 | 40.50440 | 3.82882 | 32161 ft | 527 kts | 22° |
| 2026-05-05 18:07 | 40.53736 | 3.85012 | 32526 ft | 526 kts | 22° |
| 2026-05-05 18:07 | 40.57020 | 3.87135 | 32881 ft | 525 kts | 22° |
| 2026-05-05 18:08 | 40.60298 | 3.89254 | 33226 ft | 525 kts | 22° |
| 2026-05-05 18:08 | 40.63576 | 3.91372 | 33572 ft | 524 kts | 21° |
| 2026-05-05 18:08 | 40.66854 | 3.93487 | 33912 ft | 524 kts | 22° |
| 2026-05-05 18:08 | 40.70124 | 3.95604 | 34229 ft | 523 kts | 22° |
| 2026-05-05 18:09 | 40.73392 | 3.97725 | 34547 ft | 522 kts | 22° |
| 2026-05-05 18:09 | 40.76607 | 3.99815 | 34886 ft | 520 kts | 22° |
| 2026-05-05 18:09 | 40.79849 | 4.01926 | 35217 ft | 518 kts | 22° |
| 2026-05-05 18:09 | 40.83076 | 4.04028 | 35538 ft | 517 kts | 22° |
| 2026-05-05 18:10 | 40.86300 | 4.06126 | 35819 ft | 517 kts | 21° |
| 2026-05-05 18:10 | 40.92754 | 4.10340 | 35882 ft | 517 kts | 22° |
| 2026-05-05 18:11 | 40.99207 | 4.14560 | 35890 ft | 517 kts | 22° |
| 2026-05-05 18:11 | 41.05649 | 4.18787 | 35925 ft | 517 kts | 22° |
| 2026-05-05 18:12 | 41.12066 | 4.22996 | 35890 ft | 517 kts | 22° |
| 2026-05-05 18:12 | 41.18512 | 4.27244 | 35891 ft | 517 kts | 22° |
| 2026-05-05 18:13 | 41.24957 | 4.31510 | 35899 ft | 518 kts | 22° |
| 2026-05-05 18:13 | 41.31408 | 4.35771 | 35916 ft | 518 kts | 22° |
| 2026-05-05 18:14 | 41.37866 | 4.40049 | 35908 ft | 518 kts | 22° |
| 2026-05-05 18:14 | 41.44331 | 4.44350 | 35907 ft | 518 kts | 22° |
| 2026-05-05 18:15 | 41.50780 | 4.48647 | 35930 ft | 519 kts | 22° |
| 2026-05-05 18:15 | 41.57191 | 4.52925 | 35916 ft | 519 kts | 22° |
| 2026-05-05 18:16 | 41.63650 | 4.57241 | 35909 ft | 519 kts | 22° |
| 2026-05-05 18:16 | 41.70116 | 4.61570 | 35915 ft | 519 kts | 22° |
| 2026-05-05 18:17 | 41.76582 | 4.65926 | 35911 ft | 520 kts | 22° |
| 2026-05-05 18:17 | 41.83051 | 4.70300 | 35905 ft | 520 kts | 22° |
| 2026-05-05 18:18 | 41.89526 | 4.74660 | 35935 ft | 520 kts | 22° |
| 2026-05-05 18:18 | 41.95987 | 4.79022 | 35921 ft | 520 kts | 22° |
| 2026-05-05 18:19 | 42.02421 | 4.83380 | 35913 ft | 520 kts | 22° |
| 2026-05-05 18:19 | 42.08884 | 4.87774 | 35909 ft | 521 kts | 22° |
| 2026-05-05 18:20 | 42.15358 | 4.92192 | 35931 ft | 521 kts | 23° |
| 2026-05-05 18:20 | 42.21828 | 4.96610 | 35886 ft | 521 kts | 22° |
| 2026-05-05 18:21 | 42.28293 | 5.01043 | 35900 ft | 521 kts | 23° |
| 2026-05-05 18:21 | 42.34762 | 5.05483 | 35916 ft | 521 kts | 23° |
| 2026-05-05 18:22 | 42.41188 | 5.09900 | 35903 ft | 522 kts | 23° |
| 2026-05-05 18:22 | 42.47663 | 5.14351 | 35907 ft | 522 kts | 23° |
| 2026-05-05 18:23 | 42.54146 | 5.18825 | 35933 ft | 522 kts | 23° |
| 2026-05-05 18:23 | 42.60621 | 5.23313 | 35926 ft | 522 kts | 23° |
| 2026-05-05 18:24 | 42.67102 | 5.27822 | 35918 ft | 523 kts | 23° |
| 2026-05-05 18:24 | 42.73539 | 5.32301 | 35913 ft | 523 kts | 23° |
| 2026-05-05 18:25 | 42.80050 | 5.36830 | 35915 ft | 530 kts | 23° |
| 2026-05-05 18:25 | 42.86665 | 5.41450 | 35913 ft | 536 kts | 23° |
| 2026-05-05 18:26 | 42.93298 | 5.46094 | 35905 ft | 535 kts | 24° |
| 2026-05-05 18:26 | 42.99922 | 5.50749 | 35912 ft | 535 kts | 24° |
| 2026-05-05 18:27 | 43.06547 | 5.55415 | 35919 ft | 535 kts | 24° |
| 2026-05-05 18:27 | 43.13172 | 5.60097 | 35938 ft | 535 kts | 24° |
| 2026-05-05 18:28 | 43.23095 | 5.67139 | 35941 ft | 535 kts | 24° |
| 2026-05-05 18:28 | 43.29664 | 5.71803 | 35928 ft | 535 kts | 24° |
| 2026-05-05 18:29 | 43.36277 | 5.76497 | 35931 ft | 534 kts | 24° |
| 2026-05-05 18:29 | 43.42887 | 5.81210 | 35928 ft | 534 kts | 24° |
| 2026-05-05 18:30 | 43.49482 | 5.85926 | 35945 ft | 534 kts | 24° |
| 2026-05-05 18:30 | 43.56078 | 5.90658 | 35943 ft | 533 kts | 24° |
| 2026-05-05 18:31 | 43.62645 | 5.95386 | 35946 ft | 532 kts | 24° |
| 2026-05-05 18:31 | 43.69172 | 6.00091 | 35947 ft | 532 kts | 24° |
| 2026-05-05 18:32 | 43.75731 | 6.04833 | 35940 ft | 532 kts | 24° |
| 2026-05-05 18:32 | 43.82280 | 6.09581 | 35911 ft | 531 kts | 24° |
| 2026-05-05 18:33 | 43.88834 | 6.14331 | 35933 ft | 532 kts | 24° |
| 2026-05-05 18:33 | 43.95381 | 6.19096 | 35933 ft | 532 kts | 24° |
| 2026-05-05 18:34 | 44.01937 | 6.23883 | 35936 ft | 532 kts | 24° |
| 2026-05-05 18:34 | 44.08490 | 6.28670 | 35957 ft | 532 kts | 25° |
| 2026-05-05 18:35 | 44.15049 | 6.33486 | 35953 ft | 532 kts | 25° |
| 2026-05-05 18:35 | 44.21599 | 6.38313 | 35945 ft | 532 kts | 25° |
| 2026-05-05 18:36 | 44.24908 | 6.40418 | 35967 ft | 526 kts | 14° |
| 2026-05-05 18:36 | 44.28440 | 6.41566 | 35962 ft | 518 kts | 3° |
| 2026-05-05 18:36 | 44.35569 | 6.43037 | 35954 ft | 518 kts | 3° |
| 2026-05-05 18:37 | 44.42701 | 6.44431 | 35940 ft | 517 kts | 2° |
| 2026-05-05 18:37 | 44.49794 | 6.45809 | 35945 ft | 517 kts | 3° |
| 2026-05-05 18:38 | 44.56915 | 6.47230 | 35906 ft | 517 kts | 3° |
| 2026-05-05 18:38 | 44.64039 | 6.48660 | 35929 ft | 517 kts | 3° |
| 2026-05-05 18:39 | 44.71158 | 6.50099 | 35927 ft | 516 kts | 3° |
| 2026-05-05 18:39 | 44.78265 | 6.51538 | 35924 ft | 516 kts | 3° |
| 2026-05-05 18:40 | 44.85379 | 6.52965 | 35935 ft | 516 kts | 3° |
| 2026-05-05 18:40 | 44.92491 | 6.54392 | 35926 ft | 515 kts | 4° |
| 2026-05-05 18:41 | 44.99584 | 6.55829 | 35918 ft | 515 kts | 3° |
| 2026-05-05 18:41 | 45.05481 | 6.57026 | 35923 ft | 514 kts | 4° |
| 2026-05-05 18:42 | 45.13719 | 6.58719 | 35911 ft | 513 kts | 4° |
| 2026-05-05 18:42 | 45.19611 | 6.59929 | 35933 ft | 513 kts | 3° |
| 2026-05-05 18:43 | 45.26675 | 6.61369 | 35930 ft | 512 kts | 4° |
| 2026-05-05 18:43 | 45.33722 | 6.62801 | 35917 ft | 511 kts | 4° |
| 2026-05-05 18:44 | 45.40770 | 6.64247 | 35917 ft | 512 kts | 4° |
| 2026-05-05 18:44 | 45.47830 | 6.65708 | 35912 ft | 512 kts | 4° |
| 2026-05-05 18:45 | 45.54866 | 6.67166 | 35914 ft | 510 kts | 4° |
| 2026-05-05 18:45 | 45.61906 | 6.68617 | 35929 ft | 510 kts | 4° |
| 2026-05-05 18:46 | 45.68932 | 6.70078 | 35918 ft | 509 kts | 4° |
| 2026-05-05 18:46 | 45.75900 | 6.71529 | 35916 ft | 509 kts | 4° |
| 2026-05-05 18:47 | 45.82910 | 6.73001 | 35939 ft | 509 kts | 5° |
| 2026-05-05 18:47 | 45.89917 | 6.74477 | 35935 ft | 508 kts | 5° |
| 2026-05-05 18:48 | 45.96903 | 6.75941 | 35929 ft | 507 kts | 5° |
| 2026-05-05 18:48 | 46.03900 | 6.77405 | 35931 ft | 506 kts | 5° |
| 2026-05-05 18:49 | 46.10873 | 6.78876 | 35924 ft | 506 kts | 5° |
| 2026-05-05 18:49 | 46.17690 | 6.80322 | 35927 ft | 493 kts | 5° |
| 2026-05-05 18:50 | 46.24450 | 6.81760 | 35910 ft | 489 kts | 5° |
| 2026-05-05 18:50 | 46.31178 | 6.83186 | 35910 ft | 489 kts | 5° |
| 2026-05-05 18:51 | 46.37902 | 6.84618 | 35913 ft | 487 kts | 5° |
| 2026-05-05 18:51 | 46.44616 | 6.86039 | 35900 ft | 487 kts | 5° |
| 2026-05-05 18:52 | 46.51276 | 6.87978 | 35896 ft | 491 kts | 17° |
| 2026-05-05 18:52 | 46.57319 | 6.92640 | 35892 ft | 495 kts | 37° |
| 2026-05-05 18:53 | 46.62115 | 6.99793 | 35892 ft | 495 kts | 52° |
| 2026-05-05 18:53 | 46.66411 | 7.07549 | 35889 ft | 496 kts | 51° |
| 2026-05-05 18:54 | 46.70800 | 7.15469 | 35904 ft | 508 kts | 52° |
| 2026-05-05 18:54 | 46.75245 | 7.23519 | 35913 ft | 509 kts | 52° |
| 2026-05-05 18:55 | 46.79673 | 7.31556 | 35905 ft | 507 kts | 52° |
| 2026-05-05 18:55 | 46.84061 | 7.39583 | 35902 ft | 509 kts | 52° |
| 2026-05-05 18:56 | 46.88486 | 7.47690 | 35890 ft | 509 kts | 52° |
| 2026-05-05 18:56 | 46.92873 | 7.55752 | 35925 ft | 509 kts | 52° |
| 2026-05-05 18:57 | 46.97282 | 7.63866 | 35937 ft | 509 kts | 52° |
| 2026-05-05 18:57 | 47.01663 | 7.71989 | 35937 ft | 509 kts | 52° |
| 2026-05-05 18:58 | 47.06053 | 7.80151 | 35948 ft | 508 kts | 52° |
| 2026-05-05 18:58 | 47.10432 | 7.88309 | 35942 ft | 508 kts | 52° |
| 2026-05-05 18:59 | 47.14639 | 7.96626 | 35958 ft | 506 kts | 59° |
| 2026-05-05 18:59 | 47.18374 | 8.05386 | 35956 ft | 505 kts | 59° |
| 2026-05-05 19:00 | 47.22106 | 8.14150 | 35950 ft | 505 kts | 59° |
| 2026-05-05 19:00 | 47.25803 | 8.22853 | 35939 ft | 504 kts | 59° |
| 2026-05-05 19:01 | 47.30005 | 8.31101 | 35915 ft | 505 kts | 44° |
| 2026-05-05 19:01 | 47.35667 | 8.37152 | 35916 ft | 502 kts | 25° |
| 2026-05-05 19:02 | 47.41963 | 8.41615 | 35910 ft | 502 kts | 24° |
| 2026-05-05 19:02 | 47.48265 | 8.46062 | 35887 ft | 502 kts | 24° |
| 2026-05-05 19:03 | 47.54521 | 8.50510 | 35897 ft | 502 kts | 25° |
| 2026-05-05 19:03 | 47.60810 | 8.55003 | 35899 ft | 501 kts | 25° |
| 2026-05-05 19:04 | 47.67105 | 8.59499 | 35896 ft | 502 kts | 25° |
| 2026-05-05 19:04 | 47.73388 | 8.64005 | 35906 ft | 501 kts | 25° |
| 2026-05-05 19:05 | 47.79675 | 8.68511 | 35907 ft | 501 kts | 25° |
| 2026-05-05 19:05 | 47.85954 | 8.73025 | 35901 ft | 500 kts | 25° |
| 2026-05-05 19:06 | 47.92167 | 8.77515 | 35890 ft | 499 kts | 25° |
| 2026-05-05 19:06 | 47.98422 | 8.82052 | 35884 ft | 499 kts | 25° |
| 2026-05-05 19:07 | 48.04673 | 8.86594 | 35892 ft | 499 kts | 25° |
| 2026-05-05 19:07 | 48.10921 | 8.91136 | 35889 ft | 499 kts | 26° |
| 2026-05-05 19:08 | 48.17329 | 8.95045 | 35885 ft | 497 kts | 13° |
| 2026-05-05 19:08 | 48.24098 | 8.96492 | 35876 ft | 494 kts | 4° |
| 2026-05-05 19:09 | 48.30957 | 8.97497 | 35872 ft | 494 kts | 5° |
| 2026-05-05 19:09 | 48.37785 | 8.98524 | 35414 ft | 489 kts | 5° |
| 2026-05-05 19:10 | 48.41156 | 8.99036 | 34886 ft | 483 kts | 5° |
| 2026-05-05 19:10 | 48.44488 | 8.99547 | 34389 ft | 478 kts | 5° |
| 2026-05-05 19:10 | 48.47784 | 9.00057 | 33893 ft | 473 kts | 5° |
| 2026-05-05 19:10 | 48.51037 | 9.00558 | 33313 ft | 468 kts | 5° |
| 2026-05-05 19:11 | 48.54227 | 9.01046 | 32749 ft | 463 kts | 5° |
| 2026-05-05 19:11 | 48.57417 | 9.01535 | 32171 ft | 458 kts | 5° |
| 2026-05-05 19:11 | 48.60576 | 9.02019 | 31621 ft | 454 kts | 5° |
| 2026-05-05 19:11 | 48.63712 | 9.02512 | 31079 ft | 450 kts | 6° |
| 2026-05-05 19:12 | 48.66800 | 9.03120 | 30557 ft | 446 kts | 8° |
| 2026-05-05 19:12 | 48.69867 | 9.03843 | 29966 ft | 444 kts | 9° |
| 2026-05-05 19:12 | 48.72913 | 9.04627 | 29255 ft | 443 kts | 10° |
| 2026-05-05 19:12 | 48.75938 | 9.05418 | 28557 ft | 441 kts | 10° |
| 2026-05-05 19:13 | 48.78962 | 9.06196 | 27872 ft | 439 kts | 9° |
| 2026-05-05 19:13 | 48.81964 | 9.06945 | 27208 ft | 436 kts | 9° |
| 2026-05-05 19:13 | 48.84958 | 9.07672 | 26552 ft | 434 kts | 9° |
| 2026-05-05 19:13 | 48.87933 | 9.08380 | 25917 ft | 432 kts | 8° |
| 2026-05-05 19:14 | 48.90906 | 9.08984 | 25293 ft | 429 kts | 6° |
| 2026-05-05 19:14 | 48.93868 | 9.09444 | 24684 ft | 426 kts | 5° |
| 2026-05-05 19:14 | 48.96808 | 9.09824 | 24108 ft | 423 kts | 4° |
| 2026-05-05 19:14 | 48.99706 | 9.10167 | 23874 ft | 410 kts | 4° |
| 2026-05-05 19:15 | 49.02502 | 9.10537 | 23825 ft | 400 kts | 8° |
| 2026-05-05 19:15 | 49.05246 | 9.11225 | 23842 ft | 399 kts | 9° |
| 2026-05-05 19:15 | 49.07980 | 9.11974 | 23750 ft | 400 kts | 10° |
| 2026-05-05 19:15 | 49.10689 | 9.12758 | 23105 ft | 401 kts | 11° |
| 2026-05-05 19:16 | 49.13430 | 9.13570 | 22394 ft | 401 kts | 11° |
| 2026-05-05 19:16 | 49.16179 | 9.14382 | 21698 ft | 402 kts | 10° |
| 2026-05-05 19:16 | 49.18925 | 9.15183 | 21016 ft | 402 kts | 10° |
| 2026-05-05 19:16 | 49.21646 | 9.15973 | 20348 ft | 393 kts | 10° |
| 2026-05-05 19:17 | 49.24290 | 9.16741 | 19703 ft | 381 kts | 10° |
| 2026-05-05 19:17 | 49.26874 | 9.17491 | 19075 ft | 374 kts | 10° |
| 2026-05-05 19:17 | 49.29420 | 9.18223 | 18445 ft | 370 kts | 10° |
| 2026-05-05 19:17 | 49.31912 | 9.18940 | 17804 ft | 367 kts | 9° |
| 2026-05-05 19:18 | 49.34424 | 9.19664 | 17094 ft | 367 kts | 9° |
| 2026-05-05 19:18 | 49.36932 | 9.20390 | 16432 ft | 364 kts | 9° |
| 2026-05-05 19:18 | 49.39398 | 9.21110 | 15770 ft | 358 kts | 9° |
| 2026-05-05 19:18 | 49.41832 | 9.21822 | 15121 ft | 353 kts | 9° |
| 2026-05-05 19:19 | 49.44236 | 9.22523 | 14489 ft | 349 kts | 9° |
| 2026-05-05 19:19 | 49.46606 | 9.23213 | 13860 ft | 345 kts | 9° |
| 2026-05-05 19:19 | 49.48954 | 9.23897 | 13196 ft | 340 kts | 8° |
| 2026-05-05 19:19 | 49.51253 | 9.24568 | 12507 ft | 333 kts | 8° |
| 2026-05-05 19:20 | 49.53513 | 9.25227 | 11841 ft | 328 kts | 8° |
| 2026-05-05 19:20 | 49.55743 | 9.25877 | 11186 ft | 323 kts | 8° |
| 2026-05-05 19:20 | 49.57941 | 9.26503 | 10543 ft | 318 kts | 8° |
| 2026-05-05 19:20 | 49.60108 | 9.27110 | 9921 ft | 314 kts | 8° |
| 2026-05-05 19:21 | 49.62246 | 9.27708 | 9251 ft | 310 kts | 8° |
| 2026-05-05 19:21 | 49.64346 | 9.28286 | 8571 ft | 304 kts | 8° |
| 2026-05-05 19:21 | 49.66385 | 9.28858 | 8001 ft | 298 kts | 8° |
| 2026-05-05 19:21 | 49.68397 | 9.29427 | 7841 ft | 293 kts | 8° |
| 2026-05-05 19:22 | 49.70398 | 9.29996 | 7826 ft | 293 kts | 8° |
| 2026-05-05 19:22 | 49.72403 | 9.30564 | 7837 ft | 293 kts | 8° |
| 2026-05-05 19:22 | 49.74410 | 9.31135 | 7830 ft | 293 kts | 8° |
| 2026-05-05 19:22 | 49.76412 | 9.31704 | 7832 ft | 293 kts | 8° |
| 2026-05-05 19:23 | 49.78419 | 9.32274 | 7839 ft | 293 kts | 8° |
| 2026-05-05 19:23 | 49.80425 | 9.32846 | 7838 ft | 293 kts | 8° |
| 2026-05-05 19:23 | 49.82438 | 9.33023 | 7839 ft | 289 kts | 349° |
| 2026-05-05 19:23 | 49.84398 | 9.32453 | 7836 ft | 286 kts | 345° |
| 2026-05-05 19:24 | 49.86340 | 9.31779 | 7835 ft | 286 kts | 344° |
| 2026-05-05 19:24 | 49.88236 | 9.31114 | 7830 ft | 271 kts | 344° |
| 2026-05-05 19:24 | 49.90023 | 9.30496 | 7833 ft | 256 kts | 344° |
| 2026-05-05 19:24 | 49.91747 | 9.29904 | 7829 ft | 253 kts | 344° |
| 2026-05-05 19:25 | 49.93470 | 9.29311 | 7833 ft | 253 kts | 344° |
| 2026-05-05 19:25 | 49.95189 | 9.28718 | 7831 ft | 253 kts | 344° |
| 2026-05-05 19:25 | 49.96907 | 9.28127 | 7826 ft | 253 kts | 344° |
| 2026-05-05 19:25 | 49.98627 | 9.27539 | 7829 ft | 253 kts | 344° |
| 2026-05-05 19:26 | 50.00345 | 9.26950 | 7828 ft | 253 kts | 344° |
| 2026-05-05 19:26 | 50.02067 | 9.26354 | 7826 ft | 253 kts | 344° |
| 2026-05-05 19:26 | 50.03203 | 9.25961 | 7825 ft | 252 kts | 344° |
| 2026-05-05 19:26 | 50.05465 | 9.25178 | 7456 ft | 250 kts | 345° |
| 2026-05-05 19:27 | 50.07166 | 9.24571 | 7104 ft | 250 kts | 344° |
| 2026-05-05 19:27 | 50.08309 | 9.24157 | 6897 ft | 249 kts | 344° |
| 2026-05-05 19:27 | 50.09991 | 9.23548 | 6825 ft | 249 kts | 344° |
| 2026-05-05 19:27 | 50.11663 | 9.22941 | 6826 ft | 250 kts | 344° |
| 2026-05-05 19:28 | 50.13356 | 9.22327 | 6827 ft | 250 kts | 344° |
| 2026-05-05 19:28 | 50.15051 | 9.21705 | 6827 ft | 250 kts | 342° |
| 2026-05-05 19:28 | 50.16562 | 9.20506 | 6827 ft | 242 kts | 313° |
| 2026-05-05 19:28 | 50.17466 | 9.18364 | 6831 ft | 236 kts | 285° |
| 2026-05-05 19:29 | 50.17658 | 9.15872 | 6822 ft | 231 kts | 261° |
| 2026-05-05 19:29 | 50.17188 | 9.13502 | 6822 ft | 230 kts | 246° |
| 2026-05-05 19:29 | 50.16496 | 9.11271 | 6729 ft | 225 kts | 243° |
| 2026-05-05 19:29 | 50.15886 | 9.09072 | 6537 ft | 218 kts | 248° |
| 2026-05-05 19:30 | 50.15372 | 9.06929 | 6364 ft | 209 kts | 249° |
| 2026-05-05 19:30 | 50.14878 | 9.04811 | 6327 ft | 206 kts | 249° |
| 2026-05-05 19:30 | 50.14400 | 9.02756 | 6211 ft | 198 kts | 249° |
| 2026-05-05 19:30 | 50.13932 | 9.00754 | 5992 ft | 196 kts | 249° |
| 2026-05-05 19:31 | 50.13479 | 8.98762 | 5733 ft | 194 kts | 250° |
| 2026-05-05 19:31 | 50.13071 | 8.96823 | 5653 ft | 184 kts | 251° |
| 2026-05-05 19:31 | 50.12656 | 8.94931 | 5501 ft | 184 kts | 249° |
| 2026-05-05 19:31 | 50.12220 | 8.93075 | 5312 ft | 179 kts | 249° |
| 2026-05-05 19:32 | 50.11800 | 8.91266 | 4953 ft | 179 kts | 248° |
| 2026-05-05 19:32 | 50.11344 | 8.89451 | 4506 ft | 184 kts | 247° |
| 2026-05-05 19:32 | 50.10880 | 8.87616 | 4207 ft | 179 kts | 248° |
| 2026-05-05 19:32 | 50.10442 | 8.85856 | 3890 ft | 171 kts | 248° |
| 2026-05-05 19:33 | 50.10005 | 8.84142 | 3705 ft | 169 kts | 248° |
| 2026-05-05 19:33 | 50.09578 | 8.82434 | 3539 ft | 170 kts | 250° |
| 2026-05-05 19:33 | 50.09196 | 8.80691 | 3335 ft | 169 kts | 251° |
| 2026-05-05 19:33 | 50.08804 | 8.78969 | 3100 ft | 169 kts | 250° |
| 2026-05-05 19:34 | 50.08402 | 8.77250 | 2820 ft | 168 kts | 249° |
| 2026-05-05 19:34 | 50.08004 | 8.75559 | 2774 ft | 166 kts | 249° |
| 2026-05-05 19:34 | 50.07617 | 8.73860 | 2674 ft | 162 kts | 249° |
| 2026-05-05 19:35 | 50.06896 | 8.70850 | 2083 ft | 137 kts | 249° |
| 2026-05-05 19:35 | 50.06578 | 8.69499 | 1832 ft | 133 kts | 249° |
| 2026-05-05 19:35 | 50.06267 | 8.68158 | 1592 ft | 130 kts | 249° |
| 2026-05-05 19:35 | 50.05955 | 8.66836 | 1467 ft | 130 kts | 249° |
| 2026-05-05 19:36 | 50.05632 | 8.65515 | 1276 ft | 131 kts | 248° |
| 2026-05-05 19:36 | 50.05309 | 8.64185 | 1117 ft | 132 kts | 250° |
| 2026-05-05 19:36 | 50.05008 | 8.62824 | 951 ft | 133 kts | 251° |
| 2026-05-05 19:36 | 50.04675 | 8.61477 | 797 ft | 134 kts | 247° |
| 2026-05-05 19:37 | 50.04352 | 8.60126 | 590 ft | 135 kts | 249° |
| 2026-05-05 19:37 | 50.04031 | 8.58769 | 410 ft | 133 kts | 248° |
| 2026-05-05 19:37 | 50.03720 | 8.57477 | 352 ft | 113 kts | 249° |
| 2026-05-05 19:37 | 50.03507 | 8.56577 | 347 ft | 64 kts | 249° |
| 2026-05-05 19:38 | 50.03425 | 8.56172 | 346 ft | 18 kts | 272° |
| 2026-05-05 19:38 | 50.03448 | 8.55968 | 350 ft | 20 kts | 281° |
| 2026-05-05 19:38 | 50.03465 | 8.55826 | 353 ft | 10 kts | 279° |
| 2026-05-05 19:38 | 50.03480 | 8.55726 | 353 ft | 9 kts | 301° |
| 2026-05-05 19:39 | 50.03530 | 8.55700 | 349 ft | 7 kts | 9° |
| 2026-05-05 19:39 | 50.03564 | 8.55760 | 350 ft | 12 kts | 68° |
| 2026-05-05 19:39 | 50.03595 | 8.55919 | 351 ft | 17 kts | 84° |
| 2026-05-05 19:39 | 50.03633 | 8.56094 | 351 ft | 18 kts | 69° |
| 2026-05-05 19:40 | 50.03681 | 8.56286 | 348 ft | 20 kts | 69° |
| 2026-05-05 19:40 | 50.03736 | 8.56505 | 348 ft | 23 kts | 69° |
| 2026-05-05 19:40 | 50.03799 | 8.56745 | 352 ft | 25 kts | 70° |
| 2026-05-05 19:40 | 50.03856 | 8.56992 | 349 ft | 18 kts | 70° |
| 2026-05-05 19:41 | 50.03901 | 8.57184 | 349 ft | 20 kts | 70° |
| 2026-05-05 19:41 | 50.03953 | 8.57399 | 355 ft | 22 kts | 69° |
| 2026-05-05 19:41 | 50.04010 | 8.57639 | 355 ft | 25 kts | 69° |
| 2026-05-05 19:41 | 50.04073 | 8.57899 | 350 ft | 21 kts | 69° |
| 2026-05-05 19:42 | 50.04107 | 8.58036 | 351 ft | 11 kts | 69° |
| 2026-05-05 19:42 | 50.04139 | 8.58132 | 350 ft | 9 kts | 49° |
| 2026-05-05 19:42 | 50.04191 | 8.58181 | 351 ft | 8 kts | 22° |
| 2026-05-05 19:42 | 50.04245 | 8.58209 | 355 ft | 8 kts | 10° |
| 2026-05-05 19:43 | 50.04294 | 8.58201 | 353 ft | 7 kts | 346° |
| 2026-05-05 19:43 | 50.04337 | 8.58179 | 347 ft | 6 kts | 340° |
| 2026-05-05 19:43 | 50.04374 | 8.58158 | 352 ft | 5 kts | 339° |
| 2026-05-05 19:43 | 50.04425 | 8.58124 | 351 ft | 9 kts | 337° |
| 2026-05-05 19:44 | 50.04483 | 8.58089 | 352 ft | 8 kts | 339° |
| 2026-05-05 19:44 | 50.04536 | 8.58058 | 347 ft | 8 kts | 339° |
| 2026-05-05 19:44 | 50.04614 | 8.58012 | 352 ft | 16 kts | 341° |
| 2026-05-05 19:44 | 50.04721 | 8.57952 | 355 ft | 16 kts | 340° |
| 2026-05-05 19:45 | 50.04809 | 8.57900 | 347 ft | 7 kts | 335° |
| 2026-05-05 19:45 | 50.04842 | 8.57853 | 349 ft | 6 kts | 302° |
| 2026-05-05 19:45 | 50.04860 | 8.57798 | 353 ft | 5 kts | 294° |
| 2026-05-05 19:45 | 50.04890 | 8.57687 | 352 ft | 17 kts | 292° |
| 2026-05-05 19:46 | 50.04917 | 8.57587 | 351 ft | 9 kts | 292° |
| 2026-05-05 19:46 | 50.04939 | 8.57507 | 350 ft | 8 kts | 295° |
| 2026-05-05 19:46 | 50.04962 | 8.57439 | 354 ft | 7 kts | 298° |
| 2026-05-05 19:46 | 50.04984 | 8.57409 | 349 ft | 0 kts | 333° |
| 2026-05-05 19:47 | 50.04992 | 8.57406 | 349 ft | 1 kts | 355° |
| 2026-05-05 19:47 | 50.04995 | 8.57413 | 349 ft | 1 kts | 44° |
| 2026-05-05 19:47 | 50.04997 | 8.57418 | 349 ft | 0 kts | 56° |
| 2026-05-05 19:47 | 50.04998 | 8.57423 | 351 ft | 0 kts | 60° |